Decoded Metar for KCUT (CUSTER in SD, USA) (IATA:CUT) | Meteo·Mobile Aviation Weather
aviador You're here:

KCUT Decoded Metar

CUSTER in SD, USA
Report Time2018-12-17 13:53:00
UTC Time2018-12-17 14:55:22
Flight Rules vfr VFR
Wind260° at 15 Gusting to 23 kt
W.Decomp.*RWY 26: 14.7 kt HW 2.9 kt LCW
W.Rank260° ranks 1
Current wind is above 260° avg. (7.7)
Visibility9999 m
Phenomena:N/A
Clouds:N/A
Expected CloudBase > 5,600 ft AGL from Temp-Dew spread
CeilingNone
Temp06°C (ISA +2)
Dew Point-8°C (36% RH)
AAT-2.3°C
QNH1016 hPa
Density Alt5,879 ft
Elevation5,659 ft
Report Wrong Elevation
Raw Report
KCUT 171353Z AUTO 26015G23KT 10SM CLR 06/M08 A3000 RMK AO2 PK WND
25032/1312 SLP156 T00611083 $=

Extra information for KCUT:More info

Metar Taf Metar & Taf Last 4 Metars F.Rules Stats Wind Profile Meteogram Temp Stats Airport Information Weather charts Add Link Nearby VenuesMetar ALERT Operation Metar Decoded Social comments

AIRNAV info for KCUT